Time;durP1;ratioP1;P1;durP2;ratioP2;P2;SDS_P1;SDS_P2;PMS_P1;PMS_P2;Temp;Humidity;BMP_temperature;BMP_pressure;BME280_temperature;BME280_humidity;BME280_pressure;Samples;Min_cycle;Max_cycle;Signal;HPM_P1;HPM_P2
2021/03/11 00:01:08;;;;;;;29.50;19.87;;;7.30;99.90;;;;;;4980895;28;20621;-69
2021/03/11 00:03:45;;;;;;;25.63;18.30;;;7.30;99.90;;;;;;4988329;28;20653;-72
2021/03/11 00:06:18;;;;;;;24.70;17.73;;;7.30;99.90;;;;;;4987823;28;20651;-71
2021/03/11 00:08:54;;;;;;;26.93;18.87;;;7.30;99.90;;;;;;4987427;28;20621;-70
2021/03/11 00:11:25;;;;;;;27.90;19.50;;;7.30;99.90;;;;;;4989671;28;20697;-71
2021/03/11 00:14:01;;;;;;;25.37;18.30;;;7.30;99.90;;;;;;4981869;28;20778;-70
2021/03/11 00:16:26;;;;;;;30.53;20.23;;;7.30;99.90;;;;;;4984444;28;20653;-70
2021/03/11 00:18:55;;;;;;;28.27;20.17;;;7.30;99.90;;;;;;4983263;28;20616;-69
2021/03/11 00:21:22;;;;;;;30.43;19.83;;;7.30;99.90;;;;;;4987183;28;20182;-69
2021/03/11 00:24:17;;;;;;;;;;;;;;;;;;;;;
2021/03/11 00:26:45;;;;;;;30.00;21.30;;;7.30;99.90;;;;;;4986371;28;20639;-70
2021/03/11 00:29:16;;;;;;;28.87;19.93;;;7.30;99.90;;;;;;4985549;28;20640;-69
2021/03/11 00:31:48;;;;;;;28.57;20.27;;;7.20;99.90;;;;;;4988269;28;20585;-69
2021/03/11 00:34:13;;;;;;;32.03;20.50;;;7.20;99.90;;;;;;4989922;28;20694;-70
2021/03/11 00:36:41;;;;;;;32.10;21.47;;;7.20;99.90;;;;;;4986219;28;20681;-70
2021/03/11 00:39:11;;;;;;;31.33;22.27;;;7.20;99.90;;;;;;4987243;28;20217;-69
2021/03/11 00:41:39;;;;;;;32.50;22.53;;;7.10;99.90;;;;;;4983649;28;20598;-70
2021/03/11 00:44:10;;;;;;;34.10;21.50;;;7.10;99.90;;;;;;4978965;28;20620;-69
2021/03/11 00:46:41;;;;;;;28.60;20.50;;;7.10;99.90;;;;;;4980590;28;20646;-71
2021/03/11 00:49:06;;;;;;;29.57;20.57;;;7.10;99.90;;;;;;4973102;28;20693;-69
2021/03/11 00:51:41;;;;;;;29.47;20.23;;;7.20;99.90;;;;;;4980929;28;20687;-70
2021/03/11 00:54:06;;;;;;;29.00;20.27;;;7.20;99.90;;;;;;4982419;28;20185;-69
2021/03/11 00:56:32;;;;;;;32.40;20.97;;;7.20;99.90;;;;;;4985915;28;20679;-70
2021/03/11 00:59:01;;;;;;;30.30;21.43;;;7.10;99.90;;;;;;4984990;28;20254;-69
2021/03/11 01:01:30;;;;;;;30.43;20.40;;;7.10;99.90;;;;;;4984585;28;20202;-70
2021/03/11 01:03:58;;;;;;;31.00;19.90;;;7.00;99.90;;;;;;4985910;28;20609;-69
2021/03/11 01:06:27;;;;;;;28.47;19.70;;;7.00;99.90;;;;;;4978105;28;21008;-70
2021/03/11 01:08:54;;;;;;;28.10;20.07;;;6.90;99.90;;;;;;4998611;28;21251;-71
2021/03/11 01:11:22;;;;;;;26.57;20.10;;;6.90;99.90;;;;;;4984381;28;20617;-69
2021/03/11 01:14:00;;;;;;;28.33;20.93;;;6.90;99.90;;;;;;4981614;28;20618;-70
2021/03/11 01:16:28;;;;;;;28.80;19.10;;;6.90;99.90;;;;;;4990035;28;20640;-71
2021/03/11 01:18:54;;;;;;;27.90;20.50;;;6.90;99.90;;;;;;4985565;28;20606;-69
2021/03/11 01:21:31;;;;;;;26.90;19.97;;;6.80;99.90;;;;;;4986721;28;20612;-70
2021/03/11 01:23:57;;;;;;;28.50;19.63;;;6.80;99.90;;;;;;4984405;28;20809;-69
2021/03/11 01:26:26;;;;;;;28.03;20.73;;;6.90;99.90;;;;;;4979069;28;20621;-70
2021/03/11 01:28:54;;;;;;;25.83;19.40;;;6.80;99.90;;;;;;4975875;28;20622;-70
2021/03/11 01:31:19;;;;;;;27.80;20.30;;;6.90;99.90;;;;;;4982990;28;21126;-71
2021/03/11 01:33:50;;;;;;;28.57;19.87;;;6.80;99.90;;;;;;4986215;28;20617;-70
2021/03/11 01:36:20;;;;;;;25.90;19.07;;;6.80;99.90;;;;;;4983659;28;20205;-70
2021/03/11 01:39:02;;;;;;;26.23;18.50;;;6.80;99.90;;;;;;4989966;28;20613;-70
2021/03/11 01:41:29;;;;;;;25.07;17.87;;;6.80;99.90;;;;;;4981873;28;20636;-70
2021/03/11 01:44:13;;;;;;;26.83;18.50;;;6.90;99.90;;;;;;4978719;28;20618;-70
2021/03/11 01:46:51;;;;;;;;;;;;;;;;;;;;;
2021/03/11 01:49:19;;;;;;;26.37;18.10;;;6.90;99.90;;;;;;4985494;28;21353;-70
2021/03/11 01:51:46;;;;;;;26.33;17.97;;;6.90;99.90;;;;;;4987787;28;21194;-70
2021/03/11 01:54:16;;;;;;;23.17;15.90;;;6.90;99.90;;;;;;4983150;28;20671;-71
2021/03/11 01:56:45;;;;;;;22.70;16.17;;;6.90;99.90;;;;;;4981160;28;20664;-70
2021/03/11 01:59:14;;;;;;;24.37;17.50;;;6.90;99.90;;;;;;4988312;28;20609;-70
2021/03/11 02:01:50;;;;;;;21.47;15.80;;;6.80;99.90;;;;;;4982312;28;20610;-71
2021/03/11 02:04:28;;;;;;;24.13;16.90;;;6.90;99.90;;;;;;4987237;28;20707;-71
2021/03/11 02:07:22;;;;;;;20.77;16.87;;;6.80;99.90;;;;;;4982419;28;20729;-69
2021/03/11 02:09:47;;;;;;;25.47;17.47;;;6.80;99.90;;;;;;4985579;28;20688;-70
2021/03/11 02:12:56;;;;;;;24.60;16.90;;;6.70;99.90;;;;;;4988614;28;20648;-70
2021/03/11 02:15:38;;;;;;;25.97;19.00;;;6.70;99.90;;;;;;4984387;28;20555;-71
2021/03/11 02:18:14;;;;;;;21.53;15.87;;;6.70;99.90;;;;;;4984335;28;20641;-70
2021/03/11 02:21:10;;;;;;;21.53;16.70;;;6.80;99.90;;;;;;4992993;28;20605;-71
2021/03/11 02:24:26;;;;;;;25.53;18.60;;;6.80;99.90;;;;;;4983850;28;20635;-70
2021/03/11 02:27:29;;;;;;;21.67;16.10;;;6.80;99.90;;;;;;4993124;28;20687;-70
2021/03/11 02:30:01;;;;;;;22.03;16.17;;;6.70;99.90;;;;;;4988220;28;20663;-70
2021/03/11 02:32:39;;;;;;;21.83;16.40;;;6.70;99.90;;;;;;5015939;28;20637;-71
2021/03/11 02:35:07;;;;;;;22.90;16.97;;;6.70;99.90;;;;;;4985664;28;20601;-70
2021/03/11 02:37:53;;;;;;;22.17;16.17;;;6.60;99.90;;;;;;4991617;28;20645;-70
2021/03/11 02:40:33;;;;;;;21.20;16.50;;;6.60;99.90;;;;;;4990553;28;20660;-70
2021/03/11 02:43:15;;;;;;;24.30;17.60;;;6.60;99.90;;;;;;4989092;28;20608;-71
2021/03/11 02:45:47;;;;;;;23.73;16.63;;;6.50;99.90;;;;;;4989540;28;20606;-70
2021/03/11 02:48:33;;;;;;;23.63;16.40;;;6.50;99.90;;;;;;4992767;28;20645;-69
2021/03/11 02:51:05;;;;;;;25.73;18.07;;;6.50;99.90;;;;;;4991456;28;21173;-69
2021/03/11 02:53:30;;;;;;;20.33;15.93;;;6.50;99.90;;;;;;4990013;28;20645;-70
2021/03/11 02:55:58;;;;;;;22.80;17.13;;;6.60;99.90;;;;;;4990519;28;20689;-70
2021/03/11 02:58:28;;;;;;;21.23;17.43;;;6.60;99.90;;;;;;4988973;28;20696;-70
2021/03/11 03:00:57;;;;;;;22.30;17.07;;;6.70;99.90;;;;;;4988582;28;20639;-70
2021/03/11 03:03:27;;;;;;;21.47;16.10;;;6.60;99.90;;;;;;4987946;28;20620;-70
2021/03/11 03:05:59;;;;;;;22.40;16.63;;;6.60;99.90;;;;;;4992952;28;20704;-70
2021/03/11 03:08:29;;;;;;;23.97;17.70;;;6.60;99.90;;;;;;4988619;28;20633;-69
2021/03/11 03:11:00;;;;;;;26.80;18.30;;;6.60;99.90;;;;;;4983644;28;20659;-69
2021/03/11 03:13:28;;;;;;;22.57;18.30;;;6.50;99.90;;;;;;4986426;28;20708;-71
2021/03/11 03:16:00;;;;;;;24.60;18.40;;;6.60;99.90;;;;;;4993147;28;20655;-70
2021/03/11 03:18:39;;;;;;;23.53;17.37;;;6.50;99.90;;;;;;4990892;28;20639;-70
2021/03/11 03:21:08;;;;;;;23.20;16.63;;;6.50;99.90;;;;;;4987654;28;20637;-69
2021/03/11 03:23:43;;;;;;;23.00;18.13;;;6.50;99.90;;;;;;4990816;28;20633;-69
2021/03/11 03:26:14;;;;;;;25.03;17.40;;;6.60;99.90;;;;;;4988625;28;20600;-70
2021/03/11 03:28:50;;;;;;;22.13;16.10;;;6.60;99.90;;;;;;4988567;28;20710;-69
2021/03/11 03:31:30;;;;;;;23.20;16.60;;;6.60;99.90;;;;;;4990271;28;20590;-70
2021/03/11 03:34:04;;;;;;;23.87;17.40;;;6.60;99.90;;;;;;4988874;28;21237;-70
2021/03/11 03:36:38;;;;;;;22.97;16.80;;;6.60;99.90;;;;;;4988088;28;21210;-69
2021/03/11 03:39:12;;;;;;;21.60;15.90;;;6.60;99.90;;;;;;4992763;28;20608;-70
2021/03/11 03:41:45;;;;;;;20.47;16.33;;;6.60;99.90;;;;;;4990666;28;20616;-70
2021/03/11 03:44:14;;;;;;;20.70;16.37;;;6.60;99.90;;;;;;4986375;28;20700;-69
2021/03/11 03:46:40;;;;;;;20.77;15.50;;;6.60;99.90;;;;;;5003129;28;20660;-69
2021/03/11 03:49:10;;;;;;;20.50;15.40;;;6.60;99.90;;;;;;4988339;28;20692;-69
2021/03/11 03:51:42;;;;;;;23.10;16.50;;;6.60;99.90;;;;;;4998270;28;20601;-70
2021/03/11 03:54:26;;;;;;;21.60;16.47;;;6.60;99.90;;;;;;4988408;28;20600;-69
2021/03/11 03:56:58;;;;;;;19.63;15.17;;;6.60;99.90;;;;;;4988029;28;20688;-70
2021/03/11 03:59:27;;;;;;;18.77;15.13;;;6.70;99.90;;;;;;4989001;28;20636;-69
2021/03/11 04:01:57;;;;;;;20.50;15.33;;;6.70;99.90;;;;;;4987800;28;20609;-70
2021/03/11 04:04:24;;;;;;;21.20;15.50;;;6.70;99.90;;;;;;4983856;28;20698;-70
2021/03/11 04:07:17;;;;;;;22.70;16.07;;;6.70;99.90;;;;;;4987002;28;20716;-70
2021/03/11 04:09:49;;;;;;;19.23;14.53;;;6.70;99.90;;;;;;4984207;28;20592;-70
2021/03/11 04:12:22;;;;;;;22.77;17.13;;;6.70;99.90;;;;;;4986649;28;20610;-70
2021/03/11 04:14:52;;;;;;;18.40;14.73;;;6.70;99.90;;;;;;4990662;28;20605;-70
2021/03/11 04:17:21;;;;;;;18.10;15.10;;;6.80;99.90;;;;;;4986693;28;20712;-69
2021/03/11 04:19:50;;;;;;;20.17;15.70;;;6.80;99.90;;;;;;4989087;28;21040;-71
2021/03/11 04:22:36;;;;;;;19.63;15.10;;;6.80;99.90;;;;;;4996130;28;20617;-70
2021/03/11 04:25:09;;;;;;;18.13;15.13;;;6.80;99.90;;;;;;4986406;28;20644;-70
2021/03/11 04:27:47;;;;;;;18.40;14.70;;;6.80;99.90;;;;;;4990842;28;20775;-70
2021/03/11 04:30:20;;;;;;;19.10;14.93;;;6.90;99.90;;;;;;4985305;28;20609;-69
2021/03/11 04:33:17;;;;;;;18.70;14.70;;;6.80;99.90;;;;;;4983149;28;20933;-69
2021/03/11 04:35:46;;;;;;;16.90;13.83;;;6.90;99.90;;;;;;4986530;28;20764;-69
2021/03/11 04:38:23;;;;;;;18.93;14.90;;;6.90;99.90;;;;;;4983102;28;20664;-70
2021/03/11 04:41:08;;;;;;;18.53;14.33;;;6.80;99.90;;;;;;4989372;28;21050;-69
2021/03/11 04:43:41;;;;;;;17.30;13.77;;;6.90;99.90;;;;;;4985511;28;20621;-70
2021/03/11 04:46:07;;;;;;;19.17;14.77;;;6.90;99.90;;;;;;4984464;28;20961;-70
2021/03/11 04:48:34;;;;;;;18.80;15.13;;;7.00;99.90;;;;;;4987233;28;20661;-70
2021/03/11 04:51:13;;;;;;;17.73;14.60;;;7.00;99.90;;;;;;4988381;28;20187;-70
2021/03/11 04:53:45;;;;;;;20.83;15.03;;;7.00;99.90;;;;;;4981376;28;20582;-69
2021/03/11 04:56:13;;;;;;;18.73;15.33;;;6.90;99.90;;;;;;4985761;28;20744;-70
2021/03/11 04:58:48;;;;;;;18.23;14.40;;;6.90;99.90;;;;;;5029600;23;20680;-65
2021/03/11 05:01:20;;;;;;;17.43;14.37;;;7.00;99.90;;;;;;5013153;28;20604;-65
2021/03/11 05:03:53;;;;;;;16.53;13.97;;;6.90;99.90;;;;;;5002232;28;20617;-65
2021/03/11 05:06:19;;;;;;;20.83;15.97;;;7.00;99.90;;;;;;5002879;28;20655;-66
2021/03/11 05:09:15;;;;;;;20.80;14.67;;;7.00;99.90;;;;;;5009076;28;20675;-66
2021/03/11 05:11:48;;;;;;;18.30;13.20;;;6.90;99.90;;;;;;5010232;28;20779;-66
2021/03/11 05:14:26;;;;;;;17.57;14.27;;;7.00;99.90;;;;;;5007818;28;21061;-66
2021/03/11 05:16:59;;;;;;;16.87;14.07;;;7.00;99.90;;;;;;5012518;28;20774;-66
2021/03/11 05:19:27;;;;;;;15.53;13.10;;;6.90;99.90;;;;;;5013749;28;20633;-66
2021/03/11 05:22:10;;;;;;;15.90;13.60;;;6.90;99.90;;;;;;5012804;28;20755;-66
2021/03/11 05:24:53;;;;;;;15.93;13.10;;;7.00;99.90;;;;;;5013754;28;20676;-66
2021/03/11 05:27:23;;;;;;;17.00;13.17;;;7.00;99.90;;;;;;5007834;28;21059;-66
2021/03/11 05:29:51;;;;;;;16.80;13.40;;;7.00;99.90;;;;;;5010635;28;21151;-66
2021/03/11 05:32:32;;;;;;;;;;;;;;;;;;;;;
2021/03/11 05:35:07;;;;;;;16.67;13.50;;;7.00;99.90;;;;;;5004797;28;20983;-66
2021/03/11 05:37:32;;;;;;;16.30;13.47;;;7.00;99.90;;;;;;5006460;28;20644;-65
2021/03/11 05:40:08;;;;;;;16.10;13.00;;;7.10;99.90;;;;;;5008367;28;20616;-66
2021/03/11 05:42:36;;;;;;;18.80;12.93;;;7.10;99.90;;;;;;5003976;28;20177;-66
2021/03/11 05:45:08;;;;;;;15.10;12.67;;;7.10;99.90;;;;;;5008077;28;20628;-65
2021/03/11 05:47:42;;;;;;;16.17;12.90;;;7.10;99.90;;;;;;5005460;28;20695;-66
2021/03/11 05:50:11;;;;;;;16.47;12.80;;;7.10;99.90;;;;;;5005755;28;20613;-66
2021/03/11 05:52:39;;;;;;;12.87;11.40;;;7.10;99.90;;;;;;5002734;28;20616;-65
2021/03/11 05:55:26;;;;;;;14.83;12.50;;;7.20;99.90;;;;;;5006867;28;20678;-65
2021/03/11 05:57:56;;;;;;;15.53;12.10;;;7.20;99.90;;;;;;5004808;28;20666;-66
2021/03/11 06:00:24;;;;;;;14.30;11.90;;;7.20;99.90;;;;;;4995926;28;20592;-65
2021/03/11 06:02:58;;;;;;;14.47;12.07;;;7.30;99.90;;;;;;5005377;28;20678;-65
2021/03/11 06:05:25;;;;;;;15.10;11.30;;;7.20;99.90;;;;;;5004232;28;20936;-66
2021/03/11 06:08:07;;;;;;;14.67;11.27;;;7.20;99.90;;;;;;5010283;28;20652;-66
2021/03/11 06:10:35;;;;;;;15.57;12.30;;;7.20;99.90;;;;;;5004806;28;20663;-67
2021/03/11 06:13:10;;;;;;;14.10;12.40;;;7.20;99.90;;;;;;5004854;28;20612;-66
2021/03/11 06:15:47;;;;;;;13.23;11.67;;;7.20;99.90;;;;;;5001751;28;20668;-65
2021/03/11 06:18:16;;;;;;;12.80;10.60;;;7.30;99.90;;;;;;5005377;28;20701;-66
2021/03/11 06:20:44;;;;;;;13.70;11.73;;;7.30;99.90;;;;;;5009717;28;20643;-66
2021/03/11 06:23:16;;;;;;;13.03;11.03;;;7.30;99.90;;;;;;5002081;28;20609;-66
2021/03/11 06:25:41;;;;;;;12.73;10.00;;;7.30;99.90;;;;;;5009426;28;20656;-66
2021/03/11 06:28:14;;;;;;;12.83;11.53;;;7.30;99.90;;;;;;5008322;28;21085;-66
2021/03/11 06:30:45;;;;;;;12.97;11.50;;;7.30;99.90;;;;;;5008256;28;20177;-66
2021/03/11 06:33:13;;;;;;;12.57;11.13;;;7.30;99.90;;;;;;5012739;28;20998;-66
2021/03/11 06:35:43;;;;;;;13.20;11.50;;;7.30;99.90;;;;;;5011487;28;20655;-66
2021/03/11 06:38:32;;;;;;;13.50;11.33;;;7.30;99.90;;;;;;5009557;28;20648;-67
2021/03/11 06:41:10;;;;;;;12.47;11.13;;;7.40;99.90;;;;;;5013210;28;20591;-66
2021/03/11 06:43:59;;;;;;;12.63;11.20;;;7.40;99.90;;;;;;5007439;28;21693;-66
2021/03/11 06:47:17;;;;;;;15.23;11.80;;;7.40;99.90;;;;;;5012547;28;20617;-66
2021/03/11 06:50:00;;;;;;;12.70;10.73;;;7.30;99.90;;;;;;5012440;28;21175;-66
2021/03/11 06:52:38;;;;;;;13.40;11.17;;;7.40;99.90;;;;;;5001542;28;20860;-69
2021/03/11 06:55:15;;;;;;;15.10;11.83;;;7.40;99.90;;;;;;5005274;28;21319;-66
2021/03/11 06:57:46;;;;;;;16.27;11.57;;;7.50;99.90;;;;;;5013795;28;20662;-66
2021/03/11 07:00:16;;;;;;;13.67;11.27;;;7.40;99.90;;;;;;5014482;28;20690;-66
2021/03/11 07:03:02;;;;;;;15.07;12.10;;;7.40;99.90;;;;;;5003098;28;20635;-66
2021/03/11 07:05:36;;;;;;;12.97;11.17;;;7.40;99.90;;;;;;4990861;28;20629;-67
2021/03/11 07:08:32;;;;;;;14.47;12.77;;;7.50;99.90;;;;;;4999761;28;20660;-66
2021/03/11 07:11:05;;;;;;;11.37;10.17;;;7.50;99.90;;;;;;5009797;28;20638;-66
2021/03/11 07:13:42;;;;;;;12.60;11.10;;;7.50;99.90;;;;;;5012458;28;20613;-65
2021/03/11 07:16:15;;;;;;;12.30;10.73;;;7.50;99.90;;;;;;5018187;28;20656;-66
2021/03/11 07:18:44;;;;;;;11.80;10.47;;;7.50;99.90;;;;;;5016068;28;20717;-65
2021/03/11 07:21:12;;;;;;;11.30;10.13;;;7.50;99.90;;;;;;5010071;28;20611;-66
2021/03/11 07:23:51;;;;;;;11.23;10.07;;;7.60;99.90;;;;;;5010559;28;20616;-66
2021/03/11 07:26:17;;;;;;;11.40;9.63;;;7.60;99.90;;;;;;5012783;28;20612;-66
2021/03/11 07:28:43;;;;;;;10.90;9.57;;;7.70;99.90;;;;;;5010858;28;20679;-65
2021/03/11 07:31:08;;;;;;;10.90;9.70;;;7.70;99.90;;;;;;5023610;28;21217;-66
2021/03/11 07:33:36;;;;;;;10.53;9.43;;;7.80;99.90;;;;;;5018558;28;20194;-66
2021/03/11 07:36:06;;;;;;;12.43;11.00;;;7.80;99.90;;;;;;5017335;28;20201;-66
2021/03/11 07:38:34;;;;;;;11.37;9.67;;;7.80;99.90;;;;;;5016550;28;20652;-66
2021/03/11 07:41:02;;;;;;;11.10;9.93;;;7.90;99.90;;;;;;5017185;28;20638;-66
2021/03/11 07:43:29;;;;;;;10.63;9.53;;;8.00;99.90;;;;;;5012999;28;20978;-67
2021/03/11 07:45:58;;;;;;;10.20;8.53;;;8.00;99.90;;;;;;5017975;28;20636;-66
2021/03/11 07:48:26;;;;;;;11.37;10.17;;;8.10;99.90;;;;;;5022679;28;20652;-66
2021/03/11 07:50:55;;;;;;;10.97;9.20;;;8.20;99.90;;;;;;5012059;28;20611;-66
2021/03/11 07:53:24;;;;;;;11.07;9.97;;;8.20;99.90;;;;;;5004789;28;20652;-66
2021/03/11 07:55:54;;;;;;;11.63;10.43;;;8.30;99.90;;;;;;5008840;28;20648;-66
2021/03/11 07:58:22;;;;;;;11.43;10.20;;;8.30;99.90;;;;;;5012516;28;20652;-66
2021/03/11 08:00:51;;;;;;;11.40;10.20;;;8.40;99.90;;;;;;5007362;28;20624;-66
2021/03/11 08:03:24;;;;;;;10.27;9.17;;;8.40;99.90;;;;;;5005453;28;20704;-66
2021/03/11 08:05:52;;;;;;;9.83;8.90;;;8.50;99.90;;;;;;5007241;28;20706;-66
2021/03/11 08:08:20;;;;;;;10.77;9.67;;;8.50;99.90;;;;;;5009644;28;20652;-66
2021/03/11 08:10:56;;;;;;;11.33;9.80;;;8.50;99.90;;;;;;5009250;28;20697;-66
2021/03/11 08:13:40;;;;;;;10.53;9.47;;;8.70;99.90;;;;;;5008580;28;20635;-65
2021/03/11 08:16:20;;;;;;;11.43;9.50;;;8.60;99.90;;;;;;5005770;28;21253;-66
2021/03/11 08:18:47;;;;;;;10.67;9.27;;;8.60;99.90;;;;;;5011425;28;20732;-66
2021/03/11 08:21:24;;;;;;;12.50;10.30;;;8.60;99.90;;;;;;5004432;28;20612;-67
2021/03/11 08:23:55;;;;;;;11.60;9.40;;;8.70;99.90;;;;;;5006787;28;21171;-67
2021/03/11 08:26:42;;;;;;;11.10;9.47;;;8.70;99.90;;;;;;5018221;28;20621;-66
2021/03/11 08:29:21;;;;;;;11.23;9.80;;;8.70;99.90;;;;;;5007222;28;20600;-66
2021/03/11 08:31:47;;;;;;;10.57;9.43;;;8.80;99.90;;;;;;5006249;28;20973;-66
2021/03/11 08:34:38;;;;;;;10.43;9.33;;;8.80;99.90;;;;;;5008085;28;21253;-66
2021/03/11 08:37:32;;;;;;;10.97;9.80;;;8.80;99.90;;;;;;5005567;28;20660;-66
2021/03/11 08:40:00;;;;;;;10.57;9.47;;;8.90;99.90;;;;;;5003824;28;20663;-66
2021/03/11 08:42:49;;;;;;;10.23;8.97;;;9.00;99.90;;;;;;4997417;28;20755;-66
2021/03/11 08:45:33;;;;;;;11.43;9.73;;;9.00;99.90;;;;;;5005803;28;20588;-66
2021/03/11 08:48:18;;;;;;;11.47;9.90;;;9.00;99.90;;;;;;5002994;28;20775;-65
2021/03/11 08:50:54;;;;;;;11.37;10.27;;;9.10;99.90;;;;;;5003754;28;20704;-65
2021/03/11 08:53:38;;;;;;;11.10;10.00;;;9.10;99.90;;;;;;5006775;28;20994;-65
2021/03/11 08:56:16;;;;;;;10.30;9.30;;;9.10;99.90;;;;;;5010647;28;20656;-65
2021/03/11 08:58:54;;;;;;;11.93;9.90;;;9.10;99.90;;;;;;5007367;28;20802;-65
2021/03/11 09:01:31;;;;;;;11.43;10.23;;;9.10;99.90;;;;;;5019754;28;20612;-65
2021/03/11 09:03:58;;;;;;;10.33;9.20;;;9.20;99.90;;;;;;5024256;28;20593;-65
2021/03/11 09:07:01;;;;;;;13.27;9.30;;;9.20;99.90;;;;;;5024307;28;20600;-65
2021/03/11 09:09:51;;;;;;;10.10;8.97;;;9.20;99.90;;;;;;5004327;28;20659;-65
2021/03/11 09:12:21;;;;;;;10.70;9.30;;;9.30;99.90;;;;;;5006917;28;20588;-65
2021/03/11 09:14:51;;;;;;;10.00;8.87;;;9.30;99.90;;;;;;5005481;28;20635;-65
2021/03/11 09:17:22;;;;;;;10.37;9.37;;;9.30;99.90;;;;;;5006319;28;20691;-65
2021/03/11 09:20:11;;;;;;;10.13;9.03;;;9.40;99.90;;;;;;5010610;28;20604;-66
2021/03/11 09:22:49;;;;;;;9.60;8.70;;;9.50;99.90;;;;;;5011485;28;21007;-65
2021/03/11 09:25:25;;;;;;;9.80;8.50;;;9.50;99.90;;;;;;5009370;28;20611;-65
2021/03/11 09:27:58;;;;;;;9.87;8.87;;;9.70;99.90;;;;;;5006207;28;20635;-65
2021/03/11 09:30:35;;;;;;;9.87;8.97;;;9.70;99.90;;;;;;5007075;28;20613;-65
2021/03/11 09:33:18;;;;;;;9.33;8.40;;;9.70;99.90;;;;;;5006411;28;20691;-65
2021/03/11 09:35:46;;;;;;;10.00;8.70;;;9.80;99.90;;;;;;5006534;28;20651;-66
2021/03/11 09:38:26;;;;;;;12.03;9.63;;;9.90;99.90;;;;;;5003769;28;20644;-65
2021/03/11 09:41:06;;;;;;;10.70;9.37;;;9.90;99.90;;;;;;5005313;28;20623;-63
2021/03/11 09:43:34;;;;;;;9.37;8.40;;;10.00;99.90;;;;;;5002163;28;20603;-62
2021/03/11 09:46:12;;;;;;;9.70;8.70;;;10.10;99.90;;;;;;5006312;28;21170;-65
2021/03/11 09:48:41;;;;;;;9.50;8.50;;;10.20;99.90;;;;;;5004899;28;20636;-66
2021/03/11 09:51:09;;;;;;;9.53;8.53;;;10.30;99.90;;;;;;5005182;28;20608;-65
2021/03/11 09:53:50;;;;;;;9.83;8.70;;;10.40;99.90;;;;;;5008470;28;20651;-65
2021/03/11 09:56:29;;;;;;;9.90;8.90;;;10.50;99.90;;;;;;5006336;28;20703;-65
2021/03/11 09:59:05;;;;;;;12.40;8.50;;;10.60;99.90;;;;;;5017917;28;20656;-66
2021/03/11 10:01:32;;;;;;;11.30;9.33;;;10.70;99.90;;;;;;5010867;28;20596;-65
2021/03/11 10:03:59;;;;;;;9.53;8.10;;;10.80;99.90;;;;;;5004606;28;20650;-65
2021/03/11 10:06:26;;;;;;;9.17;8.27;;;10.90;99.90;;;;;;5002695;28;20647;-66
2021/03/11 10:09:05;;;;;;;10.80;8.03;;;11.10;99.90;;;;;;5007586;28;20640;-66
2021/03/11 10:11:52;;;;;;;8.97;8.13;;;11.20;99.90;;;;;;5007046;28;21250;-67
2021/03/11 10:14:23;;;;;;;7.90;7.17;;;11.30;99.90;;;;;;5000130;28;20580;-67
2021/03/11 10:16:50;;;;;;;8.17;7.37;;;11.40;99.90;;;;;;5003518;28;20748;-67
2021/03/11 10:19:20;;;;;;;8.13;7.33;;;11.60;99.90;;;;;;5003650;28;20629;-66
2021/03/11 10:21:58;;;;;;;10.60;8.10;;;11.70;99.90;;;;;;5007454;28;20616;-66
2021/03/11 10:24:31;;;;;;;6.50;5.90;;;11.80;99.90;;;;;;5005570;28;20595;-67
2021/03/11 10:27:00;;;;;;;7.50;6.80;;;11.90;99.90;;;;;;5005417;28;20736;-67
2021/03/11 10:29:34;;;;;;;6.83;6.13;;;11.90;99.90;;;;;;5004157;28;20670;-66
2021/03/11 10:32:03;;;;;;;7.07;6.37;;;12.00;99.90;;;;;;5005194;28;20970;-65
2021/03/11 10:34:28;;;;;;;6.80;6.20;;;12.00;99.90;;;;;;5003519;28;21222;-66
2021/03/11 10:37:00;;;;;;;8.83;6.77;;;12.10;99.90;;;;;;5001761;28;20667;-66
2021/03/11 10:39:27;;;;;;;6.63;6.03;;;12.10;99.90;;;;;;5004843;28;20180;-66
2021/03/11 10:42:01;;;;;;;6.97;6.27;;;12.10;99.90;;;;;;5007233;28;20663;-66
2021/03/11 10:44:32;;;;;;;8.07;6.97;;;12.10;99.90;;;;;;5012060;28;21256;-67
2021/03/11 10:47:17;;;;;;;9.23;8.10;;;12.00;99.90;;;;;;5009881;28;20647;-65
2021/03/11 10:49:47;;;;;;;8.53;6.13;;;12.00;99.90;;;;;;5028244;28;20653;-66
2021/03/11 10:52:16;;;;;;;6.47;5.77;;;12.00;99.90;;;;;;5007491;28;20952;-65
2021/03/11 10:54:44;;;;;;;7.93;6.50;;;12.00;99.90;;;;;;5017939;28;20615;-67
2021/03/11 10:57:21;;;;;;;6.77;5.87;;;12.00;99.90;;;;;;5022371;23;20647;-70
2021/03/11 10:59:49;;;;;;;6.17;5.47;;;12.00;99.90;;;;;;4967144;28;20614;-71
2021/03/11 11:02:18;;;;;;;7.63;5.60;;;12.00;99.90;;;;;;4964329;28;20610;-70
2021/03/11 11:04:44;;;;;;;5.40;4.90;;;11.90;99.90;;;;;;4965637;28;21112;-71
2021/03/11 11:07:10;;;;;;;7.10;5.20;;;11.80;99.90;;;;;;4965943;28;20693;-71
2021/03/11 11:09:35;;;;;;;6.10;5.33;;;11.80;99.90;;;;;;4964221;28;20191;-70
2021/03/11 11:12:02;;;;;;;7.43;4.87;;;11.90;99.90;;;;;;4966440;28;21000;-71
2021/03/11 11:14:27;;;;;;;5.90;4.60;;;11.90;99.90;;;;;;4962468;28;20932;-71
2021/03/11 11:16:53;;;;;;;5.50;4.90;;;12.00;99.90;;;;;;4962430;28;20647;-72
2021/03/11 11:19:19;;;;;;;4.73;4.20;;;12.00;99.90;;;;;;4967884;28;20179;-71
2021/03/11 11:21:45;;;;;;;4.53;4.10;;;12.10;99.90;;;;;;4969592;28;20215;-72
2021/03/11 11:24:10;;;;;;;4.87;4.37;;;12.10;99.90;;;;;;4964203;28;20669;-72
2021/03/11 11:26:36;;;;;;;4.90;4.43;;;12.20;99.90;;;;;;4962258;28;20234;-71
2021/03/11 11:29:05;;;;;;;4.37;3.20;;;12.30;99.90;;;;;;4963017;28;20226;-70
2021/03/11 11:31:31;;;;;;;3.60;3.30;;;12.40;99.90;;;;;;4969585;28;20598;-71
2021/03/11 11:33:56;;;;;;;5.63;3.70;;;12.50;99.90;;;;;;4968706;28;20618;-71
2021/03/11 11:36:22;;;;;;;4.80;3.20;;;12.60;99.90;;;;;;4958507;28;20246;-70
2021/03/11 11:38:49;;;;;;;4.20;3.10;;;12.60;99.90;;;;;;4967347;28;20207;-70
2021/03/11 11:41:16;;;;;;;4.70;3.40;;;12.70;99.90;;;;;;4967976;28;20220;-70
2021/03/11 11:43:42;;;;;;;5.80;3.17;;;12.70;99.90;;;;;;4953983;28;20645;-70
2021/03/11 11:46:08;;;;;;;5.83;3.10;;;12.70;99.90;;;;;;4968593;28;20632;-70
2021/03/11 11:48:33;;;;;;;4.33;3.20;;;12.70;99.90;;;;;;4969813;28;20662;-70
2021/03/11 11:51:01;;;;;;;4.03;3.10;;;12.70;99.90;;;;;;4968074;28;20186;-71
2021/03/11 11:53:28;;;;;;;6.07;3.40;;;12.70;99.90;;;;;;4963343;28;20646;-70
2021/03/11 11:55:54;;;;;;;4.30;3.03;;;12.80;99.90;;;;;;4967184;28;20642;-71
2021/03/11 11:58:20;;;;;;;3.90;3.40;;;12.80;99.90;;;;;;4964300;28;20681;-70
2021/03/11 12:00:46;;;;;;;6.03;3.37;;;12.90;99.90;;;;;;4966858;28;20646;-69
2021/03/11 12:03:12;;;;;;;4.57;2.97;;;13.10;99.90;;;;;;4967955;28;20194;-70
2021/03/11 12:05:38;;;;;;;4.77;3.37;;;13.30;99.90;;;;;;4968345;28;20618;-71
2021/03/11 12:08:07;;;;;;;3.70;3.20;;;13.40;99.90;;;;;;4968504;28;20639;-70
2021/03/11 12:10:32;;;;;;;4.70;2.60;;;13.60;99.90;;;;;;4970540;28;20614;-70
2021/03/11 12:12:58;;;;;;;4.13;2.80;;;13.70;99.90;;;;;;4967121;28;20613;-74
2021/03/11 12:15:26;;;;;;;2.90;2.50;;;13.70;99.90;;;;;;4966391;28;20219;-71
2021/03/11 12:17:54;;;;;;;4.37;2.63;;;13.70;99.90;;;;;;4955776;28;20203;-71
2021/03/11 12:20:22;;;;;;;4.30;2.70;;;13.70;99.90;;;;;;4983402;28;21307;-70
2021/03/11 12:22:48;;;;;;;5.63;2.73;;;13.70;99.90;;;;;;4971885;28;20705;-71
2021/03/11 12:25:15;;;;;;;5.87;2.60;;;13.60;99.90;;;;;;4966912;28;20682;-73
2021/03/11 12:27:41;;;;;;;5.03;2.47;;;13.60;99.90;;;;;;4963257;28;20206;-70
2021/03/11 12:30:07;;;;;;;3.57;2.40;;;13.50;99.90;;;;;;4965807;28;20630;-70
2021/03/11 12:32:33;;;;;;;4.60;2.40;;;13.50;99.90;;;;;;4969355;28;20663;-70
2021/03/11 12:34:58;;;;;;;4.93;2.50;;;13.50;99.90;;;;;;4962235;28;20199;-70
2021/03/11 12:37:24;;;;;;;5.70;2.63;;;13.30;99.90;;;;;;4964217;28;20589;-72
2021/03/11 12:39:49;;;;;;;5.47;2.70;;;13.20;99.90;;;;;;4966241;28;20195;-70
2021/03/11 12:42:15;;;;;;;4.43;2.73;;;13.10;99.90;;;;;;4965812;28;20191;-71
2021/03/11 12:44:41;;;;;;;5.90;2.40;;;13.00;99.90;;;;;;4962415;28;20537;-71
2021/03/11 12:47:06;;;;;;;7.43;2.77;;;12.90;99.90;;;;;;4960226;28;20257;-71
2021/03/11 12:49:32;;;;;;;6.33;2.87;;;12.70;99.90;;;;;;4961369;28;20195;-71
2021/03/11 12:51:59;;;;;;;8.30;3.20;;;12.50;99.90;;;;;;4957648;28;20206;-67
2021/03/11 12:54:25;;;;;;;5.00;2.80;;;12.40;99.90;;;;;;4955066;28;20667;-70
2021/03/11 12:56:52;;;;;;;8.23;3.03;;;12.30;99.90;;;;;;4962290;28;20660;-71
2021/03/11 12:59:20;;;;;;;6.87;3.10;;;12.30;99.90;;;;;;4959589;28;21288;-71
2021/03/11 13:01:45;;;;;;;11.50;3.33;;;12.20;99.90;;;;;;4954808;28;20858;-70
2021/03/11 13:04:11;;;;;;;9.17;2.60;;;12.10;99.90;;;;;;4960850;28;21181;-70
2021/03/11 13:06:39;;;;;;;6.87;2.20;;;12.00;99.90;;;;;;4954836;28;20201;-70
2021/03/11 13:09:04;;;;;;;5.73;3.00;;;11.90;99.90;;;;;;4954140;28;20937;-70
2021/03/11 13:11:30;;;;;;;9.67;3.00;;;12.00;99.90;;;;;;4956122;28;20630;-71
2021/03/11 13:13:56;;;;;;;9.00;3.00;;;12.00;99.90;;;;;;4958081;28;20199;-69